Time;durP1;ratioP1;P1;durP2;ratioP2;P2;SDS_P1;SDS_P2;PMS_P1;PMS_P2;Temp;Humidity;BMP_temperature;BMP_pressure;BME280_temperature;BME280_humidity;BME280_pressure;Samples;Min_cycle;Max_cycle;Signal;HPM_P1;HPM_P2
2021/07/21 00:00:25;;;;;;;9.20;5.00;;;;;;;16.39;57.26;98756.59;5091190;28;20038;-74
2021/07/21 00:02:51;;;;;;;8.57;4.50;;;;;;;16.36;57.16;98751.72;5090655;28;20138;-75
2021/07/21 00:05:18;;;;;;;13.82;5.00;;;;;;;16.31;56.74;98755.47;5090906;28;20449;-75
2021/07/21 00:07:43;;;;;;;10.82;5.63;;;;;;;16.28;57.19;98758.91;5090816;28;20024;-75
2021/07/21 00:10:13;;;;;;;11.65;5.10;;;;;;;16.29;57.43;98762.50;5090982;28;20051;-76
2021/07/21 00:15:25;;;;;;;11.10;5.20;;;;;;;16.24;57.40;98757.91;5091312;28;20035;-75
2021/07/21 00:17:59;;;;;;;12.25;5.78;;;;;;;16.22;57.81;98754.66;5089531;28;20027;-74
2021/07/21 00:20:25;;;;;;;10.73;5.68;;;;;;;16.18;57.61;98751.75;5086586;28;20025;-75
2021/07/21 00:22:50;;;;;;;11.82;5.60;;;;;;;16.12;57.96;98749.44;5088888;28;20143;-75
2021/07/21 00:25:16;;;;;;;9.88;5.10;;;;;;;16.07;57.75;98753.22;5090473;28;20115;-74
2021/07/21 00:27:43;;;;;;;13.93;6.78;;;;;;;16.03;58.93;98750.28;5090780;28;20035;-74
2021/07/21 00:30:11;;;;;;;11.18;6.20;;;;;;;15.98;58.75;98758.75;5090854;28;20028;-74
2021/07/21 00:32:37;;;;;;;11.57;5.95;;;;;;;15.90;58.72;98759.56;5089192;28;20039;-74
2021/07/21 00:35:07;;;;;;;10.43;6.25;;;;;;;15.80;58.94;98754.31;5091123;28;20032;-75
2021/07/21 00:37:33;;;;;;;11.07;5.95;;;;;;;15.72;58.99;98767.78;5091120;28;20035;-76
2021/07/21 00:39:59;;;;;;;14.07;6.68;;;;;;;15.60;59.10;98765.66;5092297;28;20386;-75
2021/07/21 00:42:24;;;;;;;10.80;6.05;;;;;;;15.57;59.28;98759.97;5089244;28;20664;-75
2021/07/21 00:44:53;;;;;;;11.38;6.72;;;;;;;15.51;59.45;98766.78;5090032;28;20496;-76
2021/07/21 00:47:18;;;;;;;9.95;5.05;;;;;;;15.46;60.33;98770.53;5090212;28;20085;-75
2021/07/21 00:49:44;;;;;;;10.30;5.40;;;;;;;15.37;60.45;98764.94;5091768;28;20024;-75
2021/07/21 00:52:09;;;;;;;10.15;5.95;;;;;;;15.30;60.18;98761.84;5089488;28;20426;-75
2021/07/21 00:54:35;;;;;;;8.63;6.13;;;;;;;15.25;61.14;98771.09;5090591;28;20051;-75
2021/07/21 00:57:02;;;;;;;12.35;6.03;;;;;;;15.17;60.67;98764.41;5090151;28;20032;-75
2021/07/21 00:59:30;;;;;;;9.93;6.05;;;;;;;15.14;60.91;98765.06;5092982;28;20034;-76
2021/07/21 01:01:57;;;;;;;13.27;6.53;;;;;;;15.09;61.57;98756.91;5090728;28;20047;-75
2021/07/21 01:04:22;;;;;;;9.48;5.68;;;;;;;15.06;61.99;98762.25;5089914;28;20071;-76
2021/07/21 01:06:49;;;;;;;12.60;6.05;;;;;;;15.02;61.28;98760.13;5091284;28;20087;-76
2021/07/21 01:09:14;;;;;;;12.68;6.22;;;;;;;14.98;61.23;98761.06;5092673;28;20434;-75
2021/07/21 01:12:19;;;;;;;11.77;6.03;;;;;;;14.94;62.05;98755.38;5090432;28;20066;-75
2021/07/21 01:15:12;;;;;;;10.63;6.80;;;;;;;14.88;61.65;98765.72;5085477;28;20036;-75
2021/07/21 01:17:58;;;;;;;13.68;6.65;;;;;;;14.86;60.87;98773.56;5090420;28;20111;-76
2021/07/21 01:20:53;;;;;;;13.73;6.30;;;;;;;14.84;61.13;98770.28;5088159;28;20036;-75
2021/07/21 01:23:36;;;;;;;13.75;6.30;;;;;;;14.84;61.57;98770.28;5088643;28;20466;-75
2021/07/21 01:26:12;;;;;;;9.90;6.43;;;;;;;14.85;61.61;98773.84;5089665;28;20424;-76
2021/07/21 01:28:42;;;;;;;14.55;6.32;;;;;;;14.83;61.30;98776.13;5089306;28;20027;-75
2021/07/21 01:31:12;;;;;;;12.13;6.97;;;;;;;14.81;61.62;98776.44;5091555;28;20595;-75
2021/07/21 01:33:39;;;;;;;10.98;7.47;;;;;;;14.78;61.96;98768.78;5090621;28;20040;-75
2021/07/21 01:36:15;;;;;;;12.50;6.60;;;;;;;14.75;61.68;98769.41;5093250;28;20027;-75
2021/07/21 01:38:45;;;;;;;14.30;7.45;;;;;;;14.71;61.59;98771.19;5093829;28;20024;-75
2021/07/21 01:41:15;;;;;;;10.20;6.13;;;;;;;14.67;62.03;98767.38;5093437;28;20106;-74
2021/07/21 01:43:42;;;;;;;;;;;;;;;14.59;61.78;98772.53;5093095;28;20509;-75
2021/07/21 01:46:09;;;;;;;13.60;7.40;;;;;;;14.55;62.15;98776.25;5093368;28;19912;-75
2021/07/21 01:48:36;;;;;;;13.77;6.65;;;;;;;14.49;62.38;98764.50;5093272;28;20074;-75
2021/07/21 01:51:04;;;;;;;13.18;6.55;;;;;;;14.44;62.25;98776.50;5092883;28;20019;-74
2021/07/21 01:53:33;;;;;;;9.45;5.95;;;;;;;14.41;62.61;98777.13;5092485;28;20493;-76
2021/07/21 01:55:59;;;;;;;11.77;6.85;;;;;;;14.39;62.67;98770.31;5092933;28;20032;-74
2021/07/21 01:58:28;;;;;;;12.70;7.05;;;;;;;14.39;62.72;98773.06;5093027;28;20069;-74
2021/07/21 02:00:54;;;;;;;16.45;7.00;;;;;;;14.38;62.63;98774.19;5093850;28;20020;-76
2021/07/21 02:03:21;;;;;;;14.52;6.40;;;;;;;14.36;62.33;98773.69;5092509;28;20108;-75
2021/07/21 02:05:56;;;;;;;11.32;5.80;;;;;;;14.33;62.42;98772.38;5092103;28;20387;-74
2021/07/21 02:08:23;;;;;;;12.85;6.30;;;;;;;14.28;63.08;98778.00;5095053;28;20024;-77
2021/07/21 02:10:48;;;;;;;12.95;6.97;;;;;;;14.23;62.87;98764.34;5093539;28;20470;-75
2021/07/21 02:13:17;;;;;;;12.63;6.00;;;;;;;14.23;62.80;98775.38;5092178;28;20023;-75
2021/07/21 02:15:44;;;;;;;12.07;6.25;;;;;;;14.22;63.26;98773.75;5092425;28;20044;-74
2021/07/21 02:18:10;;;;;;;11.60;7.05;;;;;;;14.16;63.61;98780.53;5092593;28;20031;-75
2021/07/21 02:20:36;;;;;;;11.70;5.82;;;;;;;14.07;63.70;98788.69;5092809;28;20020;-75
2021/07/21 02:23:03;;;;;;;13.13;6.53;;;;;;;14.01;63.89;98779.75;5087791;28;20024;-72
2021/07/21 02:25:29;;;;;;;11.88;6.75;;;;;;;13.96;63.84;98777.94;5091849;28;20107;-72
2021/07/21 02:27:57;;;;;;;11.55;5.50;;;;;;;13.94;64.01;98788.44;5092050;28;20645;-72
2021/07/21 02:30:23;;;;;;;12.68;6.38;;;;;;;13.94;63.94;98788.44;5092045;28;20036;-72
2021/07/21 02:32:58;;;;;;;12.13;6.57;;;;;;;13.95;64.17;98792.00;5091774;28;20027;-72
2021/07/21 02:35:23;;;;;;;10.63;6.03;;;;;;;13.93;63.94;98786.81;5091259;28;20394;-72
2021/07/21 02:37:50;;;;;;;10.05;6.38;;;;;;;13.93;63.94;98781.31;5091934;28;20032;-72
2021/07/21 02:40:17;;;;;;;9.68;5.32;;;;;;;13.90;64.17;98790.19;5092747;28;20042;-71
2021/07/21 02:42:43;;;;;;;10.48;6.38;;;;;;;13.89;64.29;98798.75;5091463;28;20028;-71
2021/07/21 02:45:10;;;;;;;11.10;5.75;;;;;;;13.88;64.00;98797.13;5090416;28;20032;-72
2021/07/21 02:47:35;;;;;;;10.95;6.22;;;;;;;13.84;65.11;98796.94;5091876;28;20028;-72
2021/07/21 02:50:01;;;;;;;12.98;6.07;;;;;;;13.77;64.38;98796.53;5089988;28;20069;-72
2021/07/21 02:52:32;;;;;;;9.57;5.47;;;;;;;13.76;64.54;98800.44;5090359;28;20020;-71
2021/07/21 02:55:03;;;;;;;13.68;6.93;;;;;;;13.79;65.11;98805.31;5091166;28;20473;-72
2021/07/21 02:57:34;;;;;;;9.55;6.38;;;;;;;13.76;64.59;98811.44;5092243;28;20062;-72
2021/07/21 03:00:07;;;;;;;10.73;6.35;;;;;;;13.74;64.65;98816.47;5094769;28;20021;-72
2021/07/21 03:02:35;;;;;;;11.43;7.80;;;;;;;13.72;64.42;98803.00;5091988;28;20024;-72
2021/07/21 03:05:01;;;;;;;10.15;7.05;;;;;;;13.76;64.57;98815.03;5091956;28;20031;-72
2021/07/21 03:07:28;;;;;;;13.52;6.78;;;;;;;13.78;64.82;98810.03;5094000;28;20023;-72
2021/07/21 03:09:54;;;;;;;12.00;6.35;;;;;;;13.78;64.66;98814.72;5093277;28;20028;-72
2021/07/21 03:12:21;;;;;;;12.40;6.88;;;;;;;13.79;64.51;98816.34;5094535;28;20024;-72
2021/07/21 03:14:47;;;;;;;12.95;6.45;;;;;;;13.83;64.51;98817.38;5093406;28;20028;-72
2021/07/21 03:17:14;;;;;;;11.77;6.50;;;;;;;13.86;64.56;98818.72;5092914;28;20028;-71
2021/07/21 03:19:47;;;;;;;12.63;5.95;;;;;;;13.86;64.51;98825.03;5092911;28;20549;-72
2021/07/21 03:22:16;;;;;;;12.50;6.43;;;;;;;13.85;64.44;98823.38;5093104;28;20073;-72
2021/07/21 03:24:44;;;;;;;11.85;6.30;;;;;;;13.88;64.65;98821.94;5095392;28;20354;-73
2021/07/21 03:27:10;;;;;;;14.20;6.70;;;;;;;13.88;64.38;98824.69;5093450;28;20595;-72
2021/07/21 03:29:37;;;;;;;13.70;7.05;;;;;;;13.89;64.54;98823.56;5093228;28;20469;-71
2021/07/21 03:32:05;;;;;;;13.32;6.30;;;;;;;13.89;64.40;98824.41;5094409;28;20457;-72
2021/07/21 03:34:33;;;;;;;10.90;6.93;;;;;;;13.88;64.44;98828.28;5092915;28;20374;-71
2021/07/21 03:36:59;;;;;;;12.23;6.70;;;;;;;13.89;64.42;98832.69;5094647;28;20104;-72
2021/07/21 03:39:25;;;;;;;12.68;7.45;;;;;;;13.87;64.76;98826.66;5086725;28;20104;-72
2021/07/21 03:41:53;;;;;;;11.95;7.53;;;;;;;13.87;64.56;98825.81;5090912;28;20028;-72
2021/07/21 03:44:23;;;;;;;11.13;6.75;;;;;;;13.86;64.48;98830.53;5090706;28;20470;-72
2021/07/21 03:46:49;;;;;;;10.20;6.45;;;;;;;13.82;64.66;98835.03;5090437;28;20042;-72
2021/07/21 03:49:18;;;;;;;12.40;7.10;;;;;;;13.78;64.62;98834.00;5090884;28;20024;-72
2021/07/21 03:51:45;;;;;;;9.88;7.05;;;;;;;13.76;64.96;98836.25;5093500;28;20073;-72
2021/07/21 03:54:11;;;;;;;10.43;6.60;;;;;;;13.72;64.93;98838.84;5090471;28;20012;-72
2021/07/21 03:56:38;;;;;;;11.98;7.53;;;;;;;13.69;65.38;98837.50;5091481;28;20050;-72
2021/07/21 03:59:06;;;;;;;11.77;6.80;;;;;;;13.66;65.92;98840.84;5091197;28;20016;-73
2021/07/21 04:01:34;;;;;;;13.38;6.15;;;;;;;13.64;65.42;98839.53;5091614;28;20024;-72
2021/07/21 04:04:01;;;;;;;11.82;6.50;;;;;;;13.65;66.11;98843.94;5090339;28;21638;-71
2021/07/21 04:06:31;;;;;;;13.60;7.38;;;;;;;13.66;65.64;98848.31;5089360;28;20500;-74
2021/07/21 04:09:03;;;;;;;11.82;7.53;;;;;;;13.67;66.25;98847.19;5091318;28;20021;-74
2021/07/21 04:11:31;;;;;;;9.57;6.00;;;;;;;13.70;65.79;98846.59;5089686;28;20024;-72
2021/07/21 04:13:58;;;;;;;17.15;7.90;;;;;;;13.75;66.35;98856.69;5090425;28;20024;-71
2021/07/21 04:16:25;;;;;;;11.35;7.03;;;;;;;13.70;66.33;98852.09;5091126;28;20039;-68
2021/07/21 04:18:50;;;;;;;12.05;7.22;;;;;;;13.70;66.35;98849.34;5090734;28;20039;-74
2021/07/21 04:21:16;;;;;;;12.57;7.45;;;;;;;13.73;66.23;98854.25;5090182;28;20023;-71
2021/07/21 04:23:43;;;;;;;13.27;7.30;;;;;;;13.74;66.09;98852.28;5089546;28;20012;-71
2021/07/21 04:26:10;;;;;;;12.45;7.38;;;;;;;13.75;66.20;98859.44;5089855;28;20057;-72
2021/07/21 04:28:40;;;;;;;14.40;7.90;;;;;;;13.81;66.41;98863.72;5090104;28;20103;-72
2021/07/21 04:31:06;;;;;;;13.55;7.90;;;;;;;13.79;66.60;98872.31;5071429;28;20028;-71
2021/07/21 04:33:33;;;;;;;12.65;6.72;;;;;;;13.75;66.78;98865.78;5089982;28;20024;-72
2021/07/21 04:35:59;;;;;;;13.43;7.70;;;;;;;13.78;67.05;98870.69;5089988;28;20107;-71
2021/07/21 04:38:24;;;;;;;13.63;8.27;;;;;;;13.81;66.91;98867.31;5089718;28;20032;-71
2021/07/21 04:40:51;;;;;;;13.40;7.75;;;;;;;13.84;66.69;98863.94;5089832;28;20024;-72
2021/07/21 04:43:16;;;;;;;11.98;7.53;;;;;;;13.89;66.78;98876.78;5089192;28;20481;-72
2021/07/21 04:45:45;;;;;;;13.65;7.63;;;;;;;13.94;67.62;98875.84;5090849;28;20020;-71
2021/07/21 04:48:13;;;;;;;13.53;7.90;;;;;;;13.94;66.82;98878.63;5089656;28;20036;-71
2021/07/21 04:50:40;;;;;;;13.15;7.20;;;;;;;14.01;66.77;98880.97;5089512;28;20024;-71
2021/07/21 04:53:05;;;;;;;14.65;7.18;;;;;;;14.04;67.07;98883.13;5087442;28;20052;-72
2021/07/21 04:55:31;;;;;;;11.65;7.40;;;;;;;14.08;67.26;98884.94;5089573;28;20462;-71
2021/07/21 04:57:56;;;;;;;15.43;7.72;;;;;;;14.11;66.78;98883.50;5089704;28;20023;-71
2021/07/21 05:00:21;;;;;;;14.45;7.82;;;;;;;14.21;66.48;98886.03;5089386;28;20869;-71
2021/07/21 05:02:47;;;;;;;9.82;6.50;;;;;;;14.30;67.06;98891.63;5087782;28;20051;-72
2021/07/21 05:05:12;;;;;;;12.80;7.10;;;;;;;14.36;66.71;98892.34;5089442;28;20044;-71
2021/07/21 05:07:38;;;;;;;10.38;6.35;;;;;;;14.44;66.34;98900.69;5091142;28;20031;-72
2021/07/21 05:10:03;;;;;;;11.85;7.40;;;;;;;14.52;66.61;98890.03;5093512;28;20016;-72
2021/07/21 05:12:29;;;;;;;11.48;6.82;;;;;;;14.59;66.57;98893.19;5093333;28;20397;-72
2021/07/21 05:14:54;;;;;;;12.05;6.93;;;;;;;14.65;66.18;98889.19;5092454;28;20105;-72
2021/07/21 05:17:19;;;;;;;12.32;6.88;;;;;;;14.72;66.00;98894.28;5092865;28;20039;-71
2021/07/21 05:19:45;;;;;;;13.48;7.40;;;;;;;14.79;66.33;98891.91;5093556;28;20088;-71
2021/07/21 05:22:10;;;;;;;13.00;6.93;;;;;;;14.86;65.91;98891.47;5093329;28;20047;-71
2021/07/21 05:24:35;;;;;;;14.25;6.80;;;;;;;14.93;65.88;98896.53;5093566;28;20016;-72
2021/07/21 05:27:01;;;;;;;13.57;7.72;;;;;;;14.97;65.61;98892.84;5093041;28;20016;-71
2021/07/21 05:29:26;;;;;;;12.82;7.43;;;;;;;15.02;65.55;98894.66;5094129;28;20553;-71
2021/07/21 05:31:51;;;;;;;14.07;7.38;;;;;;;15.08;65.85;98890.63;5094081;28;20020;-71
2021/07/21 05:34:17;;;;;;;18.73;6.80;;;;;;;15.15;65.86;98890.16;5093132;28;20024;-73
2021/07/21 05:36:42;;;;;;;14.20;7.35;;;;;;;15.22;65.13;98893.31;5093048;28;20103;-72
2021/07/21 05:39:09;;;;;;;11.50;6.75;;;;;;;15.28;65.24;98892.03;5093254;28;20073;-71
2021/07/21 05:41:34;;;;;;;11.00;6.65;;;;;;;15.36;65.22;98895.16;5094688;28;20100;-72
2021/07/21 05:44:00;;;;;;;11.25;6.93;;;;;;;15.44;65.59;98892.44;5092853;28;20047;-71
2021/07/21 05:46:25;;;;;;;10.13;6.93;;;;;;;15.51;65.08;98894.75;5094843;28;20016;-71
2021/07/21 05:48:51;;;;;;;11.32;6.72;;;;;;;15.58;65.09;98886.00;5093035;28;20063;-72
2021/07/21 05:51:16;;;;;;;11.60;7.10;;;;;;;15.64;64.74;98893.03;5093687;28;20016;-71
2021/07/21 05:53:41;;;;;;;10.80;6.70;;;;;;;15.67;64.67;98894.31;5093277;28;20461;-72
2021/07/21 05:56:11;;;;;;;13.75;6.55;;;;;;;15.72;64.68;98889.44;5093599;28;20469;-71
2021/07/21 05:58:36;;;;;;;;;;;;;;;15.82;64.99;98895.84;5095077;28;20016;-71
2021/07/21 06:01:02;;;;;;;11.13;6.40;;;;;;;15.90;64.46;98893.13;5093917;28;19920;-72
2021/07/21 06:03:27;;;;;;;9.45;5.75;;;;;;;15.96;64.60;98898.50;5093627;28;20067;-73
2021/07/21 06:05:52;;;;;;;12.90;6.80;;;;;;;15.99;64.84;98892.31;5094619;28;20367;-71
2021/07/21 06:08:18;;;;;;;12.60;6.93;;;;;;;16.03;64.46;98901.63;5094156;28;20020;-72
2021/07/21 06:10:43;;;;;;;9.18;6.20;;;;;;;16.12;64.71;98898.88;5095616;28;20380;-72
2021/07/21 06:13:11;;;;;;;11.30;6.65;;;;;;;16.22;64.50;98901.34;5093275;28;20099;-72
2021/07/21 06:15:37;;;;;;;11.70;7.30;;;;;;;16.29;64.27;98907.22;5095891;28;20016;-71
2021/07/21 06:18:03;;;;;;;11.02;5.78;;;;;;;16.36;64.00;98912.25;5094162;28;20382;-72
2021/07/21 06:20:28;;;;;;;9.90;6.22;;;;;;;16.42;64.17;98907.41;5095478;28;20024;-72
2021/07/21 06:22:54;;;;;;;10.75;6.35;;;;;;;16.49;63.83;98911.28;5092872;28;20355;-72
2021/07/21 06:25:19;;;;;;;9.02;5.75;;;;;;;16.57;64.12;98909.66;5092160;28;20024;-72
2021/07/21 06:27:44;;;;;;;11.07;6.00;;;;;;;16.66;63.88;98923.53;5090783;28;20500;-72
2021/07/21 06:30:11;;;;;;;8.40;5.82;;;;;;;16.71;63.97;98923.34;5094034;28;20017;-73
2021/07/21 06:32:38;;;;;;;11.00;6.07;;;;;;;16.79;63.96;98925.31;5091582;28;20081;-72
2021/07/21 06:35:08;;;;;;;7.70;4.60;;;;;;;16.91;63.88;98932.94;5091762;28;20024;-72
2021/07/21 06:37:33;;;;;;;9.10;5.47;;;;;;;16.93;63.16;98930.66;5090479;28;20435;-73
2021/07/21 06:39:59;;;;;;;10.07;6.25;;;;;;;17.00;63.30;98933.00;5091977;28;20044;-71
2021/07/21 06:42:25;;;;;;;13.43;6.15;;;;;;;17.06;63.24;98940.00;5091821;28;20031;-71
2021/07/21 06:44:51;;;;;;;11.02;5.47;;;;;;;17.11;63.21;98928.75;5091918;28;20059;-71
2021/07/21 06:47:17;;;;;;;9.75;6.05;;;;;;;17.19;62.88;98935.41;5093957;28;20024;-72
2021/07/21 06:49:42;;;;;;;7.85;5.53;;;;;;;17.24;62.91;98928.88;5091472;28;20028;-72
2021/07/21 06:52:07;;;;;;;11.02;6.15;;;;;;;17.33;62.56;98937.16;5092247;28;20454;-72
2021/07/21 06:54:33;;;;;;;9.65;5.20;;;;;;;17.37;62.12;98938.13;5091913;28;20016;-72
2021/07/21 06:56:58;;;;;;;11.80;5.78;;;;;;;17.38;62.26;98943.34;5093531;28;20035;-72
2021/07/21 06:59:27;;;;;;;11.15;5.07;;;;;;;17.43;62.61;98945.13;5092044;28;20034;-72
2021/07/21 07:01:53;;;;;;;9.93;5.40;;;;;;;17.52;62.64;98947.91;5093582;28;20047;-71
2021/07/21 07:04:18;;;;;;;9.93;5.18;;;;;;;17.60;62.52;98940.69;5091193;28;20091;-72
2021/07/21 07:06:44;;;;;;;9.65;4.85;;;;;;;17.69;62.55;98941.47;5090991;28;20257;-72
2021/07/21 07:09:09;;;;;;;9.50;5.65;;;;;;;17.77;62.60;98945.34;5090495;28;20031;-73
2021/07/21 07:11:34;;;;;;;10.10;5.65;;;;;;;17.84;62.50;98949.22;5090328;28;20027;-73
2021/07/21 07:14:00;;;;;;;12.60;5.32;;;;;;;17.92;62.17;98949.53;5086278;28;20027;-72
2021/07/21 07:16:25;;;;;;;7.78;4.53;;;;;;;17.99;62.25;98947.09;5086724;28;20482;-70
2021/07/21 07:18:51;;;;;;;13.93;5.97;;;;;;;18.05;62.07;98950.47;5087690;28;20102;-73
2021/07/21 07:21:16;;;;;;;10.13;4.68;;;;;;;18.10;61.69;98953.91;5089429;28;20435;-74
2021/07/21 07:23:42;;;;;;;8.13;4.78;;;;;;;18.18;61.41;98962.47;5090636;28;20366;-73
2021/07/21 07:26:07;;;;;;;11.35;5.05;;;;;;;18.20;61.31;98958.25;5090565;28;20551;-75
2021/07/21 07:28:32;;;;;;;9.40;5.10;;;;;;;18.23;61.06;98962.28;5090287;28;20102;-74
2021/07/21 07:30:58;;;;;;;7.32;4.43;;;;;;;18.24;61.30;98961.97;5089434;28;20020;-72
2021/07/21 07:33:23;;;;;;;12.60;5.50;;;;;;;18.32;61.38;98963.06;5089254;28;20424;-72
2021/07/21 07:35:49;;;;;;;9.05;5.53;;;;;;;18.38;61.09;98958.94;5090091;28;20053;-73
2021/07/21 07:38:14;;;;;;;8.80;5.13;;;;;;;18.47;60.99;98960.88;5088873;28;20028;-72
2021/07/21 07:40:42;;;;;;;14.18;5.97;;;;;;;18.53;60.86;98963.09;5090287;28;20074;-73
2021/07/21 07:43:07;;;;;;;11.55;5.80;;;;;;;18.56;60.20;98959.66;5089890;28;20039;-72
2021/07/21 07:45:34;;;;;;;11.10;5.07;;;;;;;18.64;60.38;98963.50;5091101;28;20043;-72
2021/07/21 07:47:59;;;;;;;9.02;5.20;;;;;;;18.70;60.28;98964.94;5091742;28;20524;-78
2021/07/21 07:50:25;;;;;;;10.43;4.82;;;;;;;18.79;60.17;98961.28;5090756;28;20051;-73
2021/07/21 07:52:50;;;;;;;8.02;4.88;;;;;;;18.90;60.50;98956.94;5090721;28;20127;-74
2021/07/21 07:55:16;;;;;;;7.90;5.10;;;;;;;18.95;59.77;98970.59;5090569;28;20028;-72
2021/07/21 07:57:41;;;;;;;10.60;5.22;;;;;;;19.01;59.99;98960.16;5090637;28;20028;-73
2021/07/21 08:00:09;;;;;;;8.20;4.97;;;;;;;19.12;59.84;98968.88;5090061;28;20467;-74
2021/07/21 08:02:35;;;;;;;8.68;4.90;;;;;;;19.17;59.70;98960.31;5088618;28;20036;-73
2021/07/21 08:05:00;;;;;;;8.73;5.10;;;;;;;19.23;58.38;98958.97;5092206;28;20431;-74
2021/07/21 08:07:29;;;;;;;8.82;4.78;;;;;;;19.26;59.05;98968.56;5089560;28;20055;-73
2021/07/21 08:09:54;;;;;;;12.02;5.07;;;;;;;19.32;59.24;98958.88;5090570;28;20028;-74
2021/07/21 08:12:20;;;;;;;11.43;5.13;;;;;;;19.36;59.04;98959.81;5090478;28;20047;-73
2021/07/21 08:14:45;;;;;;;8.35;4.95;;;;;;;19.39;59.26;98966.66;5090324;28;20509;-75
2021/07/21 08:17:11;;;;;;;8.10;4.68;;;;;;;19.45;58.41;98968.06;5089966;28;20040;-74
2021/07/21 08:19:39;;;;;;;10.23;5.20;;;;;;;19.48;56.89;98967.38;5090008;28;20426;-74
2021/07/21 08:22:05;;;;;;;9.53;4.63;;;;;;;19.49;56.31;98964.25;5090240;28;20034;-72
2021/07/21 08:24:31;;;;;;;12.27;4.78;;;;;;;19.52;57.00;98967.50;5088582;28;20357;-71
2021/07/21 08:26:56;;;;;;;7.88;4.53;;;;;;;19.57;57.12;98968.09;5097183;28;20077;-73
2021/07/21 08:29:22;;;;;;;9.35;5.35;;;;;;;19.66;57.63;98964.41;5093858;28;20027;-74
2021/07/21 08:31:48;;;;;;;10.02;5.10;;;;;;;19.75;56.93;98968.72;5083992;28;20040;-75
2021/07/21 08:34:14;;;;;;;9.73;4.70;;;;;;;19.85;57.57;98969.44;5088951;28;20024;-75
2021/07/21 08:36:40;;;;;;;7.28;4.20;;;;;;;19.94;57.40;98967.38;5087619;28;20394;-73
2021/07/21 08:39:09;;;;;;;10.88;5.30;;;;;;;20.04;56.89;98974.47;5089341;28;20040;-72
2021/07/21 08:41:35;;;;;;;9.40;4.50;;;;;;;20.16;57.47;98974.47;5087516;28;20122;-71
2021/07/21 08:44:00;;;;;;;7.35;4.47;;;;;;;20.27;57.32;98968.41;5088855;28;21411;-72
2021/07/21 08:46:26;;;;;;;6.25;4.20;;;;;;;20.40;56.58;98975.59;5088460;28;20079;-72
2021/07/21 08:48:52;;;;;;;9.52;4.57;;;;;;;20.50;55.79;98979.88;5089655;28;20062;-73
2021/07/21 08:51:20;;;;;;;9.27;4.55;;;;;;;20.56;54.39;98983.25;5088592;28;20111;-72
2021/07/21 08:53:46;;;;;;;8.15;4.28;;;;;;;20.59;55.34;98979.75;5088838;28;20052;-71
2021/07/21 08:56:12;;;;;;;15.45;7.85;;;;;;;20.60;54.32;98987.78;5088060;28;20028;-71
2021/07/21 08:58:37;;;;;;;8.38;4.65;;;;;;;20.61;54.04;98981.03;5089343;28;20028;-71
2021/07/21 09:01:03;;;;;;;17.98;9.02;;;;;;;20.63;54.28;98978.72;5088222;28;20058;-78
2021/07/21 09:03:30;;;;;;;8.43;4.45;;;;;;;20.74;54.43;98973.44;5088411;28;20052;-73
2021/07/21 09:05:56;;;;;;;7.82;4.22;;;;;;;20.87;54.60;98981.81;5088970;28;20060;-75
2021/07/21 09:08:21;;;;;;;12.85;7.30;;;;;;;20.94;54.10;98976.47;5085419;28;20051;-72
2021/07/21 09:10:48;;;;;;;5.43;3.92;;;;;;;20.99;52.64;98981.75;5087176;28;20054;-73
2021/07/21 09:13:15;;;;;;;7.03;3.70;;;;;;;20.97;53.33;98979.34;5087063;28;20032;-75
2021/07/21 09:15:46;;;;;;;6.22;3.97;;;;;;;20.99;53.31;98976.19;5087172;28;20028;-74
2021/07/21 09:18:14;;;;;;;5.90;3.65;;;;;;;21.05;53.50;98972.00;5087407;28;20032;-73
2021/07/21 09:20:42;;;;;;;10.27;4.60;;;;;;;21.15;53.80;98972.66;5087870;28;20026;-74
2021/07/21 09:23:09;;;;;;;11.45;4.65;;;;;;;21.28;51.90;98971.44;5088034;28;20565;-73
2021/07/21 09:25:36;;;;;;;8.32;3.80;;;;;;;21.33;52.18;98967.56;5087941;28;20039;-74
2021/07/21 09:28:05;;;;;;;6.50;3.75;;;;;;;21.44;52.91;98965.06;5088726;28;20355;-74
2021/07/21 09:30:33;;;;;;;9.57;3.78;;;;;;;21.56;52.69;98974.22;5088100;28;20478;-73
2021/07/21 09:33:08;;;;;;;8.25;4.28;;;;;;;21.61;51.42;98969.50;5087874;28;20020;-74
2021/07/21 09:35:39;;;;;;;5.65;4.00;;;;;;;21.62;51.01;98972.00;5089503;28;20134;-73
2021/07/21 09:38:10;;;;;;;6.00;4.10;;;;;;;21.60;51.35;98971.50;5080916;28;20028;-72
2021/07/21 09:40:37;;;;;;;7.05;3.97;;;;;;;21.60;51.78;98974.28;5080826;28;20051;-75
2021/07/21 09:43:15;;;;;;;8.52;3.65;;;;;;;21.63;51.82;98975.56;5085667;28;20059;-74
2021/07/21 09:45:42;;;;;;;6.50;3.70;;;;;;;21.61;49.29;98975.91;5088631;28;20028;-75
2021/07/21 09:48:08;;;;;;;6.45;3.80;;;;;;;21.55;50.35;98978.16;5087176;28;20028;-73
2021/07/21 09:50:36;;;;;;;5.88;3.42;;;;;;;21.53;50.04;98980.50;5086511;28;20035;-73
2021/07/21 09:53:05;;;;;;;4.93;3.30;;;;;;;21.49;50.52;98974.00;5084449;28;20032;-70
2021/07/21 09:55:35;;;;;;;7.13;3.20;;;;;;;21.49;50.21;98973.19;5087419;28;20111;-74
2021/07/21 09:58:26;;;;;;;4.40;3.40;;;;;;;21.50;50.30;98974.81;5089020;28;20477;-73
2021/07/21 10:00:51;;;;;;;5.93;3.92;;;;;;;21.54;49.90;98975.72;5085963;28;20876;-71
2021/07/21 10:03:24;;;;;;;6.78;3.97;;;;;;;21.61;50.51;98981.50;5086499;28;20131;-72
2021/07/21 10:06:08;;;;;;;12.23;5.32;;;;;;;21.59;49.57;98986.63;5089552;28;20071;-74
2021/07/21 10:08:47;;;;;;;11.02;5.25;;;;;;;21.53;49.96;98985.25;5090128;28;20608;-73
2021/07/21 10:11:23;;;;;;;7.45;3.80;;;;;;;21.48;50.14;98986.34;5090299;28;20016;-73
2021/07/21 10:13:50;;;;;;;6.70;3.75;;;;;;;21.49;49.72;98981.56;5091799;28;20032;-72
2021/07/21 10:16:45;;;;;;;6.97;3.80;;;;;;;21.51;50.23;98982.84;5095454;28;20106;-73
2021/07/21 10:19:11;;;;;;;8.70;4.03;;;;;;;21.58;50.25;98975.84;5092092;28;20031;-73
2021/07/21 10:21:38;;;;;;;7.63;3.53;;;;;;;21.62;49.61;98972.00;5090599;28;20520;-72
2021/07/21 10:24:05;;;;;;;9.55;4.30;;;;;;;21.66;49.84;98970.09;5091814;28;20036;-73
2021/07/21 10:26:31;;;;;;;7.18;3.60;;;;;;;21.70;49.60;98979.38;5092318;28;20055;-74
2021/07/21 10:28:58;;;;;;;7.20;3.97;;;;;;;21.71;48.88;98978.22;5091649;28;20620;-73
2021/07/21 10:31:25;;;;;;;6.13;3.70;;;;;;;21.68;49.47;98976.13;5090408;28;20032;-73
2021/07/21 10:33:52;;;;;;;7.18;3.55;;;;;;;21.68;49.55;98975.31;5091858;28;20028;-72
2021/07/21 10:36:20;;;;;;;4.88;3.58;;;;;;;21.72;49.91;98976.22;5092079;28;20473;-72
2021/07/21 10:38:46;;;;;;;6.43;4.18;;;;;;;21.73;49.47;98971.47;5090453;28;20748;-71
2021/07/21 10:41:13;;;;;;;7.40;4.03;;;;;;;21.70;48.96;98972.97;5090401;28;20088;-72
2021/07/21 10:43:42;;;;;;;5.32;3.30;;;;;;;21.72;49.02;98979.00;5090802;28;20053;-72
2021/07/21 10:46:27;;;;;;;;;;;;;;;21.71;47.51;98975.44;5091121;28;20498;-73
2021/07/21 10:49:05;;;;;;;4.32;3.00;;;;;;;21.69;48.38;98968.56;5090287;28;19912;-73
2021/07/21 10:51:50;;;;;;;6.60;3.45;;;;;;;21.69;48.25;98963.81;5090436;28;20020;-73
2021/07/21 10:54:30;;;;;;;8.35;4.00;;;;;;;21.75;48.19;98964.34;5091174;28;20391;-73
2021/07/21 10:59:41;;;;;;;5.72;3.67;;;;;;;21.89;47.26;98969.47;5085044;28;20054;-71
2021/07/21 11:02:08;;;;;;;6.10;3.80;;;;;;;21.94;48.08;98972.00;5084115;28;20063;-72
2021/07/21 11:04:44;;;;;;;6.53;3.30;;;;;;;21.99;47.76;98963.34;5090314;28;20036;-76
2021/07/21 11:07:11;;;;;;;4.50;3.33;;;;;;;22.07;46.59;98964.34;5089882;28;20060;-73
2021/07/21 11:09:41;;;;;;;5.60;3.50;;;;;;;22.10;45.35;98962.81;5089988;28;20110;-72
2021/07/21 11:12:06;;;;;;;4.40;2.97;;;;;;;22.16;45.42;98970.56;5088846;28;20031;-73
2021/07/21 11:14:33;;;;;;;5.30;3.55;;;;;;;22.23;45.12;98966.31;5089710;28;20078;-73
2021/07/21 11:17:01;;;;;;;7.22;3.70;;;;;;;22.31;44.00;98968.91;5090795;28;20106;-81
2021/07/21 11:19:42;;;;;;;6.95;3.45;;;;;;;22.34;44.93;98960.97;5089087;28;20031;-72
2021/07/21 11:22:19;;;;;;;9.38;3.80;;;;;;;22.43;45.29;98961.59;5090547;28;20030;-73
2021/07/21 11:25:02;;;;;;;6.05;3.50;;;;;;;22.52;44.90;98955.81;5090158;28;20039;-72
2021/07/21 11:27:41;;;;;;;6.45;3.40;;;;;;;22.55;44.09;98958.72;5088406;28;20063;-73
2021/07/21 11:30:31;;;;;;;8.60;4.10;;;;;;;22.64;46.03;98964.09;5089693;28;20040;-73
2021/07/21 11:32:57;;;;;;;6.47;4.03;;;;;;;22.77;46.15;98956.38;5090336;28;20051;-72
2021/07/21 11:35:43;;;;;;;9.25;4.75;;;;;;;22.85;44.83;98955.34;5090890;28;20114;-72
2021/07/21 11:38:20;;;;;;;9.45;4.22;;;;;;;22.85;45.21;98965.72;5090969;28;20074;-72